sensor_id;sensor_type;location;lat;lon;timestamp;P1;durP1;ratioP1;P2;durP2;ratioP2
60233;SDS011;49514;43.538;-5.708;2023-07-30T00:00:32;12.70;;;2.60;;
60233;SDS011;49514;43.538;-5.708;2023-07-30T00:03:00;10.90;;;2.65;;
60233;SDS011;49514;43.538;-5.708;2023-07-30T00:05:27;10.85;;;2.60;;
60233;SDS011;49514;43.538;-5.708;2023-07-30T00:07:54;19.30;;;3.28;;
60233;SDS011;49514;43.538;-5.708;2023-07-30T00:10:21;11.10;;;2.97;;
60233;SDS011;49514;43.538;-5.708;2023-07-30T00:12:48;12.10;;;2.90;;
60233;SDS011;49514;43.538;-5.708;2023-07-30T00:15:15;14.88;;;3.15;;
60233;SDS011;49514;43.538;-5.708;2023-07-30T00:17:41;14.90;;;3.13;;
60233;SDS011;49514;43.538;-5.708;2023-07-30T00:20:08;9.68;;;3.00;;
60233;SDS011;49514;43.538;-5.708;2023-07-30T00:22:35;10.68;;;3.20;;
60233;SDS011;49514;43.538;-5.708;2023-07-30T00:25:02;12.13;;;3.13;;
60233;SDS011;49514;43.538;-5.708;2023-07-30T00:27:29;12.13;;;3.40;;
60233;SDS011;49514;43.538;-5.708;2023-07-30T00:29:56;10.45;;;2.92;;
60233;SDS011;49514;43.538;-5.708;2023-07-30T00:32:23;10.95;;;3.00;;
60233;SDS011;49514;43.538;-5.708;2023-07-30T00:34:49;12.30;;;3.13;;
60233;SDS011;49514;43.538;-5.708;2023-07-30T00:37:16;11.77;;;3.20;;
60233;SDS011;49514;43.538;-5.708;2023-07-30T00:39:43;15.15;;;3.40;;
60233;SDS011;49514;43.538;-5.708;2023-07-30T00:42:10;12.80;;;4.00;;
60233;SDS011;49514;43.538;-5.708;2023-07-30T00:44:36;11.52;;;3.53;;
60233;SDS011;49514;43.538;-5.708;2023-07-30T00:47:03;11.57;;;3.63;;
60233;SDS011;49514;43.538;-5.708;2023-07-30T00:49:31;12.10;;;4.30;;
60233;SDS011;49514;43.538;-5.708;2023-07-30T00:51:58;12.25;;;3.95;;
60233;SDS011;49514;43.538;-5.708;2023-07-30T00:54:25;10.48;;;4.30;;
60233;SDS011;49514;43.538;-5.708;2023-07-30T00:56:52;13.02;;;3.88;;
60233;SDS011;49514;43.538;-5.708;2023-07-30T00:59:20;11.45;;;4.30;;
60233;SDS011;49514;43.538;-5.708;2023-07-30T01:01:47;14.05;;;4.18;;
60233;SDS011;49514;43.538;-5.708;2023-07-30T01:04:15;9.97;;;4.13;;
60233;SDS011;49514;43.538;-5.708;2023-07-30T01:06:42;14.15;;;4.40;;
60233;SDS011;49514;43.538;-5.708;2023-07-30T01:09:10;13.65;;;4.18;;
60233;SDS011;49514;43.538;-5.708;2023-07-30T01:11:37;11.20;;;4.00;;
60233;SDS011;49514;43.538;-5.708;2023-07-30T01:14:05;11.15;;;3.92;;
60233;SDS011;49514;43.538;-5.708;2023-07-30T01:16:33;16.83;;;3.77;;
60233;SDS011;49514;43.538;-5.708;2023-07-30T01:19:00;11.45;;;3.20;;
60233;SDS011;49514;43.538;-5.708;2023-07-30T01:21:33;11.33;;;3.00;;
60233;SDS011;49514;43.538;-5.708;2023-07-30T01:24:01;11.57;;;3.42;;
60233;SDS011;49514;43.538;-5.708;2023-07-30T01:26:37;12.95;;;3.40;;
60233;SDS011;49514;43.538;-5.708;2023-07-30T01:29:21;10.53;;;3.43;;
60233;SDS011;49514;43.538;-5.708;2023-07-30T01:31:56;10.85;;;3.55;;
60233;SDS011;49514;43.538;-5.708;2023-07-30T01:34:28;11.73;;;3.72;;
60233;SDS011;49514;43.538;-5.708;2023-07-30T01:36:56;7.95;;;3.28;;
60233;SDS011;49514;43.538;-5.708;2023-07-30T01:39:23;12.67;;;3.70;;
60233;SDS011;49514;43.538;-5.708;2023-07-30T01:41:53;12.90;;;4.20;;
60233;SDS011;49514;43.538;-5.708;2023-07-30T01:44:20;12.57;;;3.90;;
60233;SDS011;49514;43.538;-5.708;2023-07-30T01:46:47;13.85;;;4.35;;
60233;SDS011;49514;43.538;-5.708;2023-07-30T01:49:13;13.60;;;4.20;;
60233;SDS011;49514;43.538;-5.708;2023-07-30T01:51:40;9.80;;;3.33;;
60233;SDS011;49514;43.538;-5.708;2023-07-30T01:54:06;12.20;;;3.63;;
60233;SDS011;49514;43.538;-5.708;2023-07-30T01:56:33;10.82;;;3.60;;
60233;SDS011;49514;43.538;-5.708;2023-07-30T01:58:59;9.90;;;3.40;;
60233;SDS011;49514;43.538;-5.708;2023-07-30T02:01:26;10.50;;;3.22;;
60233;SDS011;49514;43.538;-5.708;2023-07-30T02:03:53;10.00;;;2.90;;
60233;SDS011;49514;43.538;-5.708;2023-07-30T02:06:19;7.22;;;2.70;;
60233;SDS011;49514;43.538;-5.708;2023-07-30T02:08:46;10.80;;;3.30;;
60233;SDS011;49514;43.538;-5.708;2023-07-30T02:11:13;15.98;;;3.30;;
60233;SDS011;49514;43.538;-5.708;2023-07-30T02:13:39;13.00;;;3.40;;
60233;SDS011;49514;43.538;-5.708;2023-07-30T02:16:07;11.82;;;3.38;;
60233;SDS011;49514;43.538;-5.708;2023-07-30T02:18:33;8.90;;;3.10;;
60233;SDS011;49514;43.538;-5.708;2023-07-30T02:21:00;10.20;;;3.83;;
60233;SDS011;49514;43.538;-5.708;2023-07-30T02:23:26;11.95;;;3.20;;
60233;SDS011;49514;43.538;-5.708;2023-07-30T02:25:53;14.75;;;3.47;;
60233;SDS011;49514;43.538;-5.708;2023-07-30T02:28:20;14.35;;;3.60;;
60233;SDS011;49514;43.538;-5.708;2023-07-30T02:30:47;9.63;;;3.10;;
60233;SDS011;49514;43.538;-5.708;2023-07-30T02:33:13;12.87;;;3.57;;
60233;SDS011;49514;43.538;-5.708;2023-07-30T02:35:40;12.15;;;3.47;;
60233;SDS011;49514;43.538;-5.708;2023-07-30T02:38:08;13.52;;;3.47;;
60233;SDS011;49514;43.538;-5.708;2023-07-30T02:40:35;14.73;;;3.50;;
60233;SDS011;49514;43.538;-5.708;2023-07-30T02:43:02;13.13;;;2.92;;
60233;SDS011;49514;43.538;-5.708;2023-07-30T02:45:29;11.10;;;2.70;;
60233;SDS011;49514;43.538;-5.708;2023-07-30T02:47:56;11.32;;;3.00;;
60233;SDS011;49514;43.538;-5.708;2023-07-30T02:50:23;11.47;;;2.90;;
60233;SDS011;49514;43.538;-5.708;2023-07-30T02:52:49;8.55;;;2.45;;
60233;SDS011;49514;43.538;-5.708;2023-07-30T02:55:16;10.23;;;2.53;;
60233;SDS011;49514;43.538;-5.708;2023-07-30T02:57:43;12.13;;;2.47;;
60233;SDS011;49514;43.538;-5.708;2023-07-30T03:00:10;13.60;;;2.90;;
60233;SDS011;49514;43.538;-5.708;2023-07-30T03:02:37;12.37;;;2.90;;
60233;SDS011;49514;43.538;-5.708;2023-07-30T03:05:03;9.02;;;2.55;;
60233;SDS011;49514;43.538;-5.708;2023-07-30T03:07:31;8.30;;;2.63;;
60233;SDS011;49514;43.538;-5.708;2023-07-30T03:09:57;13.03;;;2.83;;
60233;SDS011;49514;43.538;-5.708;2023-07-30T03:12:24;8.73;;;2.70;;
60233;SDS011;49514;43.538;-5.708;2023-07-30T03:14:51;10.63;;;2.60;;
60233;SDS011;49514;43.538;-5.708;2023-07-30T03:17:17;8.30;;;2.75;;
60233;SDS011;49514;43.538;-5.708;2023-07-30T03:19:44;9.57;;;2.73;;
60233;SDS011;49514;43.538;-5.708;2023-07-30T03:22:12;8.38;;;2.72;;
60233;SDS011;49514;43.538;-5.708;2023-07-30T03:24:38;8.48;;;2.70;;
60233;SDS011;49514;43.538;-5.708;2023-07-30T03:27:05;12.80;;;2.70;;
60233;SDS011;49514;43.538;-5.708;2023-07-30T03:29:32;9.93;;;2.58;;
60233;SDS011;49514;43.538;-5.708;2023-07-30T03:31:58;7.83;;;2.63;;
60233;SDS011;49514;43.538;-5.708;2023-07-30T03:34:26;10.88;;;2.60;;
60233;SDS011;49514;43.538;-5.708;2023-07-30T03:36:52;8.10;;;2.40;;
60233;SDS011;49514;43.538;-5.708;2023-07-30T03:39:19;12.33;;;2.73;;
60233;SDS011;49514;43.538;-5.708;2023-07-30T03:41:45;8.80;;;2.58;;
60233;SDS011;49514;43.538;-5.708;2023-07-30T03:44:12;10.77;;;2.80;;
60233;SDS011;49514;43.538;-5.708;2023-07-30T03:46:39;9.07;;;2.67;;
60233;SDS011;49514;43.538;-5.708;2023-07-30T03:49:05;12.13;;;2.80;;
60233;SDS011;49514;43.538;-5.708;2023-07-30T03:51:32;7.78;;;2.33;;
60233;SDS011;49514;43.538;-5.708;2023-07-30T03:53:59;12.82;;;2.90;;
60233;SDS011;49514;43.538;-5.708;2023-07-30T03:56:26;11.77;;;2.53;;
60233;SDS011;49514;43.538;-5.708;2023-07-30T03:58:54;9.60;;;2.45;;
60233;SDS011;49514;43.538;-5.708;2023-07-30T04:01:21;8.77;;;2.50;;
60233;SDS011;49514;43.538;-5.708;2023-07-30T04:03:47;9.45;;;2.60;;
60233;SDS011;49514;43.538;-5.708;2023-07-30T04:06:14;7.77;;;2.43;;
60233;SDS011;49514;43.538;-5.708;2023-07-30T04:08:41;9.25;;;2.50;;
60233;SDS011;49514;43.538;-5.708;2023-07-30T04:11:07;8.60;;;2.13;;
60233;SDS011;49514;43.538;-5.708;2023-07-30T04:13:34;10.23;;;2.60;;
60233;SDS011;49514;43.538;-5.708;2023-07-30T04:16:01;9.23;;;2.73;;
60233;SDS011;49514;43.538;-5.708;2023-07-30T04:18:28;6.90;;;1.90;;
60233;SDS011;49514;43.538;-5.708;2023-07-30T04:20:55;7.75;;;2.08;;
60233;SDS011;49514;43.538;-5.708;2023-07-30T04:23:22;6.10;;;2.13;;
60233;SDS011;49514;43.538;-5.708;2023-07-30T04:25:49;10.98;;;2.50;;
60233;SDS011;49514;43.538;-5.708;2023-07-30T04:28:16;5.20;;;1.87;;
60233;SDS011;49514;43.538;-5.708;2023-07-30T04:30:43;7.17;;;2.17;;
60233;SDS011;49514;43.538;-5.708;2023-07-30T04:33:10;7.38;;;2.10;;
60233;SDS011;49514;43.538;-5.708;2023-07-30T04:35:39;7.38;;;2.00;;
60233;SDS011;49514;43.538;-5.708;2023-07-30T04:38:06;6.80;;;2.00;;
60233;SDS011;49514;43.538;-5.708;2023-07-30T04:40:33;5.80;;;2.13;;
60233;SDS011;49514;43.538;-5.708;2023-07-30T04:42:59;8.18;;;2.10;;
60233;SDS011;49514;43.538;-5.708;2023-07-30T04:45:27;9.23;;;2.55;;
60233;SDS011;49514;43.538;-5.708;2023-07-30T04:47:54;13.02;;;2.80;;
60233;SDS011;49514;43.538;-5.708;2023-07-30T04:50:22;8.65;;;2.50;;
60233;SDS011;49514;43.538;-5.708;2023-07-30T04:52:49;11.87;;;2.90;;
60233;SDS011;49514;43.538;-5.708;2023-07-30T04:55:15;10.95;;;3.20;;
60233;SDS011;49514;43.538;-5.708;2023-07-30T04:57:42;11.67;;;2.73;;
60233;SDS011;49514;43.538;-5.708;2023-07-30T05:00:09;11.25;;;3.33;;
60233;SDS011;49514;43.538;-5.708;2023-07-30T05:02:36;11.30;;;3.25;;
60233;SDS011;49514;43.538;-5.708;2023-07-30T05:05:03;10.00;;;3.17;;
60233;SDS011;49514;43.538;-5.708;2023-07-30T05:07:30;12.23;;;3.13;;
60233;SDS011;49514;43.538;-5.708;2023-07-30T05:09:57;10.80;;;3.17;;
60233;SDS011;49514;43.538;-5.708;2023-07-30T05:12:23;14.23;;;3.67;;
60233;SDS011;49514;43.538;-5.708;2023-07-30T05:14:50;11.45;;;3.25;;
60233;SDS011;49514;43.538;-5.708;2023-07-30T05:17:16;7.70;;;2.78;;
60233;SDS011;49514;43.538;-5.708;2023-07-30T05:19:43;14.98;;;3.33;;
60233;SDS011;49514;43.538;-5.708;2023-07-30T05:22:10;16.23;;;3.28;;
60233;SDS011;49514;43.538;-5.708;2023-07-30T05:24:36;11.53;;;3.57;;
60233;SDS011;49514;43.538;-5.708;2023-07-30T05:27:03;16.10;;;3.90;;
60233;SDS011;49514;43.538;-5.708;2023-07-30T05:29:30;12.97;;;3.77;;
60233;SDS011;49514;43.538;-5.708;2023-07-30T05:31:56;13.23;;;3.72;;
60233;SDS011;49514;43.538;-5.708;2023-07-30T05:34:23;12.77;;;3.47;;
60233;SDS011;49514;43.538;-5.708;2023-07-30T05:36:49;12.98;;;3.85;;
60233;SDS011;49514;43.538;-5.708;2023-07-30T05:39:16;13.23;;;4.13;;
60233;SDS011;49514;43.538;-5.708;2023-07-30T05:41:42;13.60;;;3.77;;
60233;SDS011;49514;43.538;-5.708;2023-07-30T05:44:09;12.43;;;3.85;;
60233;SDS011;49514;43.538;-5.708;2023-07-30T05:46:35;14.70;;;3.67;;
60233;SDS011;49514;43.538;-5.708;2023-07-30T05:49:02;10.50;;;4.20;;
60233;SDS011;49514;43.538;-5.708;2023-07-30T05:51:29;13.57;;;4.40;;
60233;SDS011;49514;43.538;-5.708;2023-07-30T05:53:55;13.05;;;3.92;;
60233;SDS011;49514;43.538;-5.708;2023-07-30T05:56:22;12.80;;;3.08;;
60233;SDS011;49514;43.538;-5.708;2023-07-30T05:58:49;10.38;;;3.00;;
60233;SDS011;49514;43.538;-5.708;2023-07-30T06:01:15;11.57;;;3.25;;
60233;SDS011;49514;43.538;-5.708;2023-07-30T06:03:42;11.88;;;3.05;;
60233;SDS011;49514;43.538;-5.708;2023-07-30T06:06:08;12.38;;;3.42;;
60233;SDS011;49514;43.538;-5.708;2023-07-30T06:08:35;11.25;;;3.40;;
60233;SDS011;49514;43.538;-5.708;2023-07-30T06:11:02;9.65;;;3.03;;
60233;SDS011;49514;43.538;-5.708;2023-07-30T06:13:29;10.60;;;2.80;;
60233;SDS011;49514;43.538;-5.708;2023-07-30T06:15:56;8.52;;;3.08;;
60233;SDS011;49514;43.538;-5.708;2023-07-30T06:18:23;9.52;;;3.72;;
60233;SDS011;49514;43.538;-5.708;2023-07-30T06:20:49;10.88;;;3.25;;
60233;SDS011;49514;43.538;-5.708;2023-07-30T06:23:16;8.05;;;3.17;;
60233;SDS011;49514;43.538;-5.708;2023-07-30T06:25:43;10.80;;;3.20;;
60233;SDS011;49514;43.538;-5.708;2023-07-30T06:28:09;7.40;;;2.65;;
60233;SDS011;49514;43.538;-5.708;2023-07-30T06:30:36;9.07;;;2.70;;
60233;SDS011;49514;43.538;-5.708;2023-07-30T06:33:05;9.05;;;2.80;;
60233;SDS011;49514;43.538;-5.708;2023-07-30T06:35:32;8.23;;;2.67;;
60233;SDS011;49514;43.538;-5.708;2023-07-30T06:37:58;9.52;;;2.80;;
60233;SDS011;49514;43.538;-5.708;2023-07-30T06:40:25;10.37;;;3.00;;
60233;SDS011;49514;43.538;-5.708;2023-07-30T06:42:52;8.77;;;2.90;;
60233;SDS011;49514;43.538;-5.708;2023-07-30T06:45:19;9.82;;;3.10;;
60233;SDS011;49514;43.538;-5.708;2023-07-30T06:47:46;8.15;;;2.72;;
60233;SDS011;49514;43.538;-5.708;2023-07-30T06:50:13;8.68;;;2.92;;
60233;SDS011;49514;43.538;-5.708;2023-07-30T06:52:39;11.57;;;2.83;;
60233;SDS011;49514;43.538;-5.708;2023-07-30T06:55:06;10.48;;;2.80;;
60233;SDS011;49514;43.538;-5.708;2023-07-30T06:57:33;9.45;;;2.58;;
60233;SDS011;49514;43.538;-5.708;2023-07-30T06:59:59;8.15;;;2.67;;
60233;SDS011;49514;43.538;-5.708;2023-07-30T07:02:26;8.90;;;2.83;;
60233;SDS011;49514;43.538;-5.708;2023-07-30T07:04:53;8.18;;;2.70;;
60233;SDS011;49514;43.538;-5.708;2023-07-30T07:07:20;10.80;;;2.83;;
60233;SDS011;49514;43.538;-5.708;2023-07-30T07:09:47;10.70;;;3.30;;
60233;SDS011;49514;43.538;-5.708;2023-07-30T07:12:14;9.82;;;2.97;;
60233;SDS011;49514;43.538;-5.708;2023-07-30T07:14:40;8.55;;;2.70;;
60233;SDS011;49514;43.538;-5.708;2023-07-30T07:17:08;7.53;;;2.78;;
60233;SDS011;49514;43.538;-5.708;2023-07-30T07:19:36;11.23;;;3.25;;
60233;SDS011;49514;43.538;-5.708;2023-07-30T07:22:05;8.93;;;2.97;;
60233;SDS011;49514;43.538;-5.708;2023-07-30T07:24:32;8.40;;;2.90;;
60233;SDS011;49514;43.538;-5.708;2023-07-30T07:26:58;6.90;;;2.60;;
60233;SDS011;49514;43.538;-5.708;2023-07-30T07:29:25;9.35;;;2.97;;
60233;SDS011;49514;43.538;-5.708;2023-07-30T07:31:52;9.43;;;3.35;;
60233;SDS011;49514;43.538;-5.708;2023-07-30T07:34:19;10.30;;;3.25;;
60233;SDS011;49514;43.538;-5.708;2023-07-30T07:36:45;10.47;;;3.70;;
60233;SDS011;49514;43.538;-5.708;2023-07-30T07:39:12;12.45;;;4.20;;
60233;SDS011;49514;43.538;-5.708;2023-07-30T07:41:39;10.85;;;4.45;;
60233;SDS011;49514;43.538;-5.708;2023-07-30T07:44:05;15.52;;;5.10;;
60233;SDS011;49514;43.538;-5.708;2023-07-30T07:46:32;19.67;;;6.60;;
60233;SDS011;49514;43.538;-5.708;2023-07-30T07:48:59;16.93;;;7.07;;
60233;SDS011;49514;43.538;-5.708;2023-07-30T07:51:25;14.30;;;5.97;;
60233;SDS011;49514;43.538;-5.708;2023-07-30T07:53:52;15.83;;;5.00;;
60233;SDS011;49514;43.538;-5.708;2023-07-30T07:56:19;12.52;;;3.92;;
60233;SDS011;49514;43.538;-5.708;2023-07-30T07:58:46;15.05;;;4.25;;
60233;SDS011;49514;43.538;-5.708;2023-07-30T08:01:13;10.70;;;3.63;;
60233;SDS011;49514;43.538;-5.708;2023-07-30T08:03:40;8.57;;;3.08;;
60233;SDS011;49514;43.538;-5.708;2023-07-30T08:06:06;9.88;;;3.13;;
60233;SDS011;49514;43.538;-5.708;2023-07-30T08:08:33;11.67;;;3.30;;
60233;SDS011;49514;43.538;-5.708;2023-07-30T08:11:09;10.20;;;3.42;;
60233;SDS011;49514;43.538;-5.708;2023-07-30T08:13:36;9.05;;;3.00;;
60233;SDS011;49514;43.538;-5.708;2023-07-30T08:16:03;11.00;;;3.37;;
60233;SDS011;49514;43.538;-5.708;2023-07-30T08:18:30;10.10;;;3.10;;
60233;SDS011;49514;43.538;-5.708;2023-07-30T08:20:57;12.63;;;3.47;;
60233;SDS011;49514;43.538;-5.708;2023-07-30T08:23:23;9.97;;;3.43;;
60233;SDS011;49514;43.538;-5.708;2023-07-30T08:25:50;9.65;;;3.08;;
60233;SDS011;49514;43.538;-5.708;2023-07-30T08:28:17;10.73;;;3.33;;
60233;SDS011;49514;43.538;-5.708;2023-07-30T08:30:44;8.82;;;2.85;;
60233;SDS011;49514;43.538;-5.708;2023-07-30T08:33:10;9.90;;;3.00;;
60233;SDS011;49514;43.538;-5.708;2023-07-30T08:35:37;9.68;;;2.88;;
60233;SDS011;49514;43.538;-5.708;2023-07-30T08:38:04;9.77;;;2.87;;
60233;SDS011;49514;43.538;-5.708;2023-07-30T08:40:31;8.43;;;2.50;;
60233;SDS011;49514;43.538;-5.708;2023-07-30T08:42:58;12.35;;;3.33;;
60233;SDS011;49514;43.538;-5.708;2023-07-30T08:45:25;6.63;;;2.53;;
60233;SDS011;49514;43.538;-5.708;2023-07-30T08:47:52;11.20;;;3.20;;
60233;SDS011;49514;43.538;-5.708;2023-07-30T08:50:19;8.05;;;2.95;;
60233;SDS011;49514;43.538;-5.708;2023-07-30T08:52:45;6.10;;;2.73;;
60233;SDS011;49514;43.538;-5.708;2023-07-30T08:55:14;11.05;;;3.30;;
60233;SDS011;49514;43.538;-5.708;2023-07-30T08:57:43;11.67;;;3.17;;
60233;SDS011;49514;43.538;-5.708;2023-07-30T09:00:11;10.68;;;2.80;;
60233;SDS011;49514;43.538;-5.708;2023-07-30T09:02:51;8.55;;;2.83;;
60233;SDS011;49514;43.538;-5.708;2023-07-30T09:05:20;8.90;;;3.10;;
60233;SDS011;49514;43.538;-5.708;2023-07-30T09:07:48;8.02;;;2.70;;
60233;SDS011;49514;43.538;-5.708;2023-07-30T09:10:15;10.98;;;3.03;;
60233;SDS011;49514;43.538;-5.708;2023-07-30T09:12:42;8.70;;;2.55;;
60233;SDS011;49514;43.538;-5.708;2023-07-30T09:15:09;8.95;;;2.80;;
60233;SDS011;49514;43.538;-5.708;2023-07-30T09:17:36;14.80;;;3.00;;
60233;SDS011;49514;43.538;-5.708;2023-07-30T09:20:03;8.63;;;3.40;;
60233;SDS011;49514;43.538;-5.708;2023-07-30T09:22:32;9.38;;;2.80;;
60233;SDS011;49514;43.538;-5.708;2023-07-30T09:25:04;9.60;;;2.92;;
60233;SDS011;49514;43.538;-5.708;2023-07-30T09:27:32;7.78;;;2.70;;
60233;SDS011;49514;43.538;-5.708;2023-07-30T09:30:00;8.15;;;2.55;;
60233;SDS011;49514;43.538;-5.708;2023-07-30T09:32:30;8.05;;;2.67;;
60233;SDS011;49514;43.538;-5.708;2023-07-30T09:35:07;8.00;;;2.53;;
60233;SDS011;49514;43.538;-5.708;2023-07-30T09:37:39;8.65;;;2.50;;
60233;SDS011;49514;43.538;-5.708;2023-07-30T09:40:07;7.50;;;2.53;;
60233;SDS011;49514;43.538;-5.708;2023-07-30T09:42:42;8.48;;;2.42;;
60233;SDS011;49514;43.538;-5.708;2023-07-30T09:45:23;9.95;;;2.63;;
60233;SDS011;49514;43.538;-5.708;2023-07-30T09:47:53;8.80;;;2.70;;
60233;SDS011;49514;43.538;-5.708;2023-07-30T09:50:23;11.50;;;2.97;;
60233;SDS011;49514;43.538;-5.708;2023-07-30T09:52:50;8.05;;;2.80;;
60233;SDS011;49514;43.538;-5.708;2023-07-30T09:55:17;10.63;;;3.03;;
60233;SDS011;49514;43.538;-5.708;2023-07-30T09:57:47;8.43;;;2.80;;
60233;SDS011;49514;43.538;-5.708;2023-07-30T10:00:14;8.10;;;2.60;;
60233;SDS011;49514;43.538;-5.708;2023-07-30T10:02:41;6.60;;;2.53;;
60233;SDS011;49514;43.538;-5.708;2023-07-30T10:05:18;8.93;;;2.57;;
60233;SDS011;49514;43.538;-5.708;2023-07-30T10:07:49;8.65;;;2.80;;
60233;SDS011;49514;43.538;-5.708;2023-07-30T10:10:25;6.07;;;2.10;;
60233;SDS011;49514;43.538;-5.708;2023-07-30T10:12:59;7.43;;;2.60;;
60233;SDS011;49514;43.538;-5.708;2023-07-30T10:15:29;9.03;;;2.53;;
60233;SDS011;49514;43.538;-5.708;2023-07-30T10:17:59;9.70;;;2.67;;
60233;SDS011;49514;43.538;-5.708;2023-07-30T10:20:26;8.60;;;2.60;;
60233;SDS011;49514;43.538;-5.708;2023-07-30T10:22:55;10.55;;;2.50;;
60233;SDS011;49514;43.538;-5.708;2023-07-30T10:25:28;9.02;;;2.72;;
60233;SDS011;49514;43.538;-5.708;2023-07-30T10:27:57;8.03;;;2.27;;
60233;SDS011;49514;43.538;-5.708;2023-07-30T10:30:29;10.18;;;2.70;;
60233;SDS011;49514;43.538;-5.708;2023-07-30T10:33:04;11.35;;;3.05;;
60233;SDS011;49514;43.538;-5.708;2023-07-30T10:40:41;9.27;;;3.40;;
60233;SDS011;49514;43.538;-5.708;2023-07-30T10:43:14;8.18;;;2.65;;
60233;SDS011;49514;43.538;-5.708;2023-07-30T10:45:50;7.68;;;2.53;;
60233;SDS011;49514;43.538;-5.708;2023-07-30T10:48:17;11.27;;;2.40;;
60233;SDS011;49514;43.538;-5.708;2023-07-30T10:50:44;8.07;;;2.63;;
60233;SDS011;49514;43.538;-5.708;2023-07-30T10:53:14;5.93;;;2.15;;
60233;SDS011;49514;43.538;-5.708;2023-07-30T10:55:44;8.10;;;2.63;;
60233;SDS011;49514;43.538;-5.708;2023-07-30T10:58:11;8.45;;;2.80;;
60233;SDS011;49514;43.538;-5.708;2023-07-30T11:00:39;9.02;;;2.80;;
60233;SDS011;49514;43.538;-5.708;2023-07-30T11:03:06;6.70;;;2.13;;
60233;SDS011;49514;43.538;-5.708;2023-07-30T11:05:32;6.53;;;2.35;;
60233;SDS011;49514;43.538;-5.708;2023-07-30T11:07:59;6.10;;;2.40;;
60233;SDS011;49514;43.538;-5.708;2023-07-30T11:10:26;7.85;;;2.63;;
60233;SDS011;49514;43.538;-5.708;2023-07-30T11:12:52;7.32;;;2.22;;
60233;SDS011;49514;43.538;-5.708;2023-07-30T11:15:19;8.27;;;2.40;;
60233;SDS011;49514;43.538;-5.708;2023-07-30T11:17:46;7.57;;;2.28;;
60233;SDS011;49514;43.538;-5.708;2023-07-30T11:20:22;7.40;;;2.67;;
60233;SDS011;49514;43.538;-5.708;2023-07-30T11:22:53;7.95;;;2.40;;
60233;SDS011;49514;43.538;-5.708;2023-07-30T11:25:20;8.50;;;2.30;;
60233;SDS011;49514;43.538;-5.708;2023-07-30T11:27:47;7.40;;;2.40;;
60233;SDS011;49514;43.538;-5.708;2023-07-30T11:30:14;7.65;;;2.40;;
60233;SDS011;49514;43.538;-5.708;2023-07-30T11:32:42;7.25;;;2.55;;
60233;SDS011;49514;43.538;-5.708;2023-07-30T11:35:12;7.00;;;2.38;;
60233;SDS011;49514;43.538;-5.708;2023-07-30T11:37:41;6.80;;;2.30;;
60233;SDS011;49514;43.538;-5.708;2023-07-30T11:40:09;5.78;;;2.00;;
60233;SDS011;49514;43.538;-5.708;2023-07-30T11:42:36;9.80;;;2.60;;
60233;SDS011;49514;43.538;-5.708;2023-07-30T11:45:20;9.15;;;2.28;;
60233;SDS011;49514;43.538;-5.708;2023-07-30T11:47:48;8.43;;;2.90;;
60233;SDS011;49514;43.538;-5.708;2023-07-30T11:50:15;9.73;;;2.80;;
60233;SDS011;49514;43.538;-5.708;2023-07-30T11:52:55;8.80;;;2.60;;
60233;SDS011;49514;43.538;-5.708;2023-07-30T11:55:22;10.23;;;3.00;;
60233;SDS011;49514;43.538;-5.708;2023-07-30T11:57:52;8.60;;;2.60;;
60233;SDS011;49514;43.538;-5.708;2023-07-30T12:00:21;9.85;;;2.60;;
60233;SDS011;49514;43.538;-5.708;2023-07-30T12:02:49;9.15;;;2.17;;
60233;SDS011;49514;43.538;-5.708;2023-07-30T12:05:16;8.55;;;2.55;;
60233;SDS011;49514;43.538;-5.708;2023-07-30T12:07:44;6.50;;;2.10;;
60233;SDS011;49514;43.538;-5.708;2023-07-30T12:10:13;8.10;;;2.60;;
60233;SDS011;49514;43.538;-5.708;2023-07-30T12:12:43;10.80;;;2.60;;
60233;SDS011;49514;43.538;-5.708;2023-07-30T12:15:11;7.70;;;2.63;;
60233;SDS011;49514;43.538;-5.708;2023-07-30T12:17:39;8.10;;;2.80;;
60233;SDS011;49514;43.538;-5.708;2023-07-30T12:20:06;8.02;;;2.58;;
60233;SDS011;49514;43.538;-5.708;2023-07-30T12:22:33;5.97;;;2.13;;
60233;SDS011;49514;43.538;-5.708;2023-07-30T12:25:01;7.83;;;2.33;;
60233;SDS011;49514;43.538;-5.708;2023-07-30T12:27:31;8.93;;;2.45;;
60233;SDS011;49514;43.538;-5.708;2023-07-30T12:29:58;8.85;;;2.47;;
60233;SDS011;49514;43.538;-5.708;2023-07-30T12:32:25;9.10;;;2.50;;
60233;SDS011;49514;43.538;-5.708;2023-07-30T12:34:54;6.82;;;2.30;;
60233;SDS011;49514;43.538;-5.708;2023-07-30T12:37:21;6.60;;;1.98;;
60233;SDS011;49514;43.538;-5.708;2023-07-30T12:39:47;8.70;;;2.17;;
60233;SDS011;49514;43.538;-5.708;2023-07-30T12:42:14;6.57;;;2.80;;
60233;SDS011;49514;43.538;-5.708;2023-07-30T12:44:41;10.18;;;2.67;;
60233;SDS011;49514;43.538;-5.708;2023-07-30T12:47:07;7.43;;;2.30;;
60233;SDS011;49514;43.538;-5.708;2023-07-30T12:49:34;8.03;;;2.33;;
60233;SDS011;49514;43.538;-5.708;2023-07-30T12:52:01;5.88;;;2.10;;
60233;SDS011;49514;43.538;-5.708;2023-07-30T12:54:27;9.30;;;2.60;;
60233;SDS011;49514;43.538;-5.708;2023-07-30T12:56:54;7.13;;;2.33;;
60233;SDS011;49514;43.538;-5.708;2023-07-30T12:59:21;10.90;;;2.58;;
60233;SDS011;49514;43.538;-5.708;2023-07-30T13:01:48;6.10;;;2.10;;
60233;SDS011;49514;43.538;-5.708;2023-07-30T13:04:15;6.72;;;2.00;;
60233;SDS011;49514;43.538;-5.708;2023-07-30T13:06:43;5.93;;;2.00;;
60233;SDS011;49514;43.538;-5.708;2023-07-30T13:09:09;8.30;;;2.30;;
60233;SDS011;49514;43.538;-5.708;2023-07-30T13:11:36;7.10;;;1.90;;
60233;SDS011;49514;43.538;-5.708;2023-07-30T13:14:03;6.47;;;2.10;;
60233;SDS011;49514;43.538;-5.708;2023-07-30T13:16:30;8.00;;;2.28;;
60233;SDS011;49514;43.538;-5.708;2023-07-30T13:18:58;7.22;;;2.15;;
60233;SDS011;49514;43.538;-5.708;2023-07-30T13:21:25;7.82;;;2.30;;
60233;SDS011;49514;43.538;-5.708;2023-07-30T13:23:51;6.88;;;2.08;;
60233;SDS011;49514;43.538;-5.708;2023-07-30T13:26:18;5.65;;;1.90;;
60233;SDS011;49514;43.538;-5.708;2023-07-30T13:28:45;7.90;;;2.10;;
60233;SDS011;49514;43.538;-5.708;2023-07-30T13:31:12;7.10;;;2.10;;
60233;SDS011;49514;43.538;-5.708;2023-07-30T13:33:39;6.18;;;2.25;;
60233;SDS011;49514;43.538;-5.708;2023-07-30T13:36:06;11.15;;;2.28;;
60233;SDS011;49514;43.538;-5.708;2023-07-30T14:05:26;7.10;;;2.05;;
60233;SDS011;49514;43.538;-5.708;2023-07-30T14:07:55;5.47;;;1.80;;
60233;SDS011;49514;43.538;-5.708;2023-07-30T14:10:25;7.60;;;2.20;;
60233;SDS011;49514;43.538;-5.708;2023-07-30T14:12:53;7.63;;;1.90;;
60233;SDS011;49514;43.538;-5.708;2023-07-30T14:15:20;4.55;;;1.73;;
60233;SDS011;49514;43.538;-5.708;2023-07-30T14:17:47;8.68;;;2.10;;
60233;SDS011;49514;43.538;-5.708;2023-07-30T14:20:14;9.35;;;1.83;;
60233;SDS011;49514;43.538;-5.708;2023-07-30T14:22:40;5.18;;;1.92;;
60233;SDS011;49514;43.538;-5.708;2023-07-30T14:25:07;6.15;;;1.90;;
60233;SDS011;49514;43.538;-5.708;2023-07-30T14:27:34;7.50;;;2.00;;
60233;SDS011;49514;43.538;-5.708;2023-07-30T14:30:01;7.30;;;2.17;;
60233;SDS011;49514;43.538;-5.708;2023-07-30T17:16:34;4.30;;;1.80;;
60233;SDS011;49514;43.538;-5.708;2023-07-30T17:19:01;5.73;;;2.03;;
60233;SDS011;49514;43.538;-5.708;2023-07-30T17:21:28;7.93;;;2.10;;
60233;SDS011;49514;43.538;-5.708;2023-07-30T17:23:55;6.03;;;2.00;;
60233;SDS011;49514;43.538;-5.708;2023-07-30T17:26:22;6.73;;;2.10;;
60233;SDS011;49514;43.538;-5.708;2023-07-30T17:28:53;5.03;;;2.20;;
60233;SDS011;49514;43.538;-5.708;2023-07-30T17:31:20;5.38;;;2.05;;
60233;SDS011;49514;43.538;-5.708;2023-07-30T17:33:46;5.97;;;1.90;;
60233;SDS011;49514;43.538;-5.708;2023-07-30T17:36:13;4.70;;;1.95;;
60233;SDS011;49514;43.538;-5.708;2023-07-30T17:38:40;4.87;;;1.97;;
60233;SDS011;49514;43.538;-5.708;2023-07-30T17:41:06;6.43;;;1.90;;
60233;SDS011;49514;43.538;-5.708;2023-07-30T17:43:33;7.03;;;2.25;;
60233;SDS011;49514;43.538;-5.708;2023-07-30T17:46:04;7.90;;;2.17;;